Perry, Oklahoma
Current Conditions -  °F | °C
As of 3:05 PM on Friday 19 Dec 2014 (Local Time) from KSWO Reporting Station
Overcast Overcast  
Wind Chill: 42°   Ceiling: 1200
Heat Index: 42°   Visibility: 10mi
Dew Point: 34°   Wind: 0mph
Humidity: 73%   Direction: NA
Pressure: 30.2"   Gusts: NA
Location:  36.29°N, 97.29°W
Report Text: KSWO 192105Z 00000KT 10SM BKN012 OVC039 06/01 A3020 RMK AO2 T00560011
Loading
Personal Weather Stations






























Interactive Weather Map New forecast layout! Learn more

10-Day Weather Forecast

Advertisements
Track Severe Weather on mobile